sensor_id;sensor_type;location;lat;lon;timestamp;temperature;humidity
44833;DHT22;30569;51.252;9.830;2024-03-23T00:53:26;10.50;99.90
44833;DHT22;30569;51.252;9.830;2024-03-23T00:55:52;10.60;99.90
44833;DHT22;30569;51.252;9.830;2024-03-23T00:58:17;10.70;99.90
44833;DHT22;30569;51.252;9.830;2024-03-23T01:00:43;10.80;99.90
44833;DHT22;30569;51.252;9.830;2024-03-23T01:03:09;10.80;99.90
44833;DHT22;30569;51.252;9.830;2024-03-23T01:05:34;10.60;99.90
44833;DHT22;30569;51.252;9.830;2024-03-23T01:08:00;10.60;99.90
44833;DHT22;30569;51.252;9.830;2024-03-23T01:10:25;10.60;99.90
44833;DHT22;30569;51.252;9.830;2024-03-23T01:12:51;12.10;99.90
44833;DHT22;30569;51.252;9.830;2024-03-23T01:15:16;10.50;99.90
44833;DHT22;30569;51.252;9.830;2024-03-23T01:17:42;10.60;99.90
44833;DHT22;30569;51.252;9.830;2024-03-23T01:20:08;10.60;99.90
44833;DHT22;30569;51.252;9.830;2024-03-23T01:22:33;10.50;99.90
44833;DHT22;30569;51.252;9.830;2024-03-23T01:24:59;10.30;99.90
44833;DHT22;30569;51.252;9.830;2024-03-23T01:27:24;10.00;99.90
44833;DHT22;30569;51.252;9.830;2024-03-23T01:29:50;10.20;99.90
44833;DHT22;30569;51.252;9.830;2024-03-23T01:32:18;10.20;99.90
44833;DHT22;30569;51.252;9.830;2024-03-23T01:34:44;10.10;99.90
44833;DHT22;30569;51.252;9.830;2024-03-23T01:37:09;10.20;99.90
44833;DHT22;30569;51.252;9.830;2024-03-23T01:39:35;10.20;99.90
44833;DHT22;30569;51.252;9.830;2024-03-23T01:42:00;10.10;99.90
44833;DHT22;30569;51.252;9.830;2024-03-23T01:44:26;10.10;99.90
44833;DHT22;30569;51.252;9.830;2024-03-23T01:46:51;10.00;99.90
44833;DHT22;30569;51.252;9.830;2024-03-23T01:49:17;10.20;99.90
44833;DHT22;30569;51.252;9.830;2024-03-23T01:51:43;10.20;99.90
44833;DHT22;30569;51.252;9.830;2024-03-23T01:54:10;10.10;99.90
44833;DHT22;30569;51.252;9.830;2024-03-23T01:56:35;10.10;99.90
44833;DHT22;30569;51.252;9.830;2024-03-23T01:59:03;9.90;99.90
44833;DHT22;30569;51.252;9.830;2024-03-23T02:01:28;9.50;99.90
44833;DHT22;30569;51.252;9.830;2024-03-23T02:03:54;9.10;99.90
44833;DHT22;30569;51.252;9.830;2024-03-23T02:06:20;9.10;99.90
44833;DHT22;30569;51.252;9.830;2024-03-23T02:08:45;9.10;99.90
44833;DHT22;30569;51.252;9.830;2024-03-23T02:11:11;9.10;99.90
44833;DHT22;30569;51.252;9.830;2024-03-23T02:13:36;9.10;99.90
44833;DHT22;30569;51.252;9.830;2024-03-23T02:16:02;9.20;99.90
44833;DHT22;30569;51.252;9.830;2024-03-23T02:18:28;9.10;99.90
44833;DHT22;30569;51.252;9.830;2024-03-23T02:20:53;8.90;99.90
44833;DHT22;30569;51.252;9.830;2024-03-23T02:23:19;8.80;99.90
44833;DHT22;30569;51.252;9.830;2024-03-23T02:25:45;8.70;99.90
44833;DHT22;30569;51.252;9.830;2024-03-23T02:28:11;8.40;99.90
44833;DHT22;30569;51.252;9.830;2024-03-23T02:30:37;8.40;99.90
44833;DHT22;30569;51.252;9.830;2024-03-23T02:33:03;8.60;99.90
44833;DHT22;30569;51.252;9.830;2024-03-23T02:35:29;8.80;99.90
44833;DHT22;30569;51.252;9.830;2024-03-23T02:37:54;8.80;99.90
44833;DHT22;30569;51.252;9.830;2024-03-23T02:40:23;8.90;99.90
44833;DHT22;30569;51.252;9.830;2024-03-23T02:42:49;9.10;99.90
44833;DHT22;30569;51.252;9.830;2024-03-23T02:45:14;9.20;99.90
44833;DHT22;30569;51.252;9.830;2024-03-23T02:47:40;9.10;99.90
44833;DHT22;30569;51.252;9.830;2024-03-23T02:50:06;9.10;99.90
44833;DHT22;30569;51.252;9.830;2024-03-23T02:52:32;9.20;99.90
44833;DHT22;30569;51.252;9.830;2024-03-23T02:54:57;9.30;99.90
44833;DHT22;30569;51.252;9.830;2024-03-23T02:57:23;9.40;99.90
44833;DHT22;30569;51.252;9.830;2024-03-23T02:59:49;9.40;99.90
44833;DHT22;30569;51.252;9.830;2024-03-23T03:02:15;9.30;99.90
44833;DHT22;30569;51.252;9.830;2024-03-23T03:04:42;9.50;99.90
44833;DHT22;30569;51.252;9.830;2024-03-23T03:07:07;9.40;99.90
44833;DHT22;30569;51.252;9.830;2024-03-23T03:09:33;9.40;99.90
44833;DHT22;30569;51.252;9.830;2024-03-23T03:12:03;9.50;99.90
44833;DHT22;30569;51.252;9.830;2024-03-23T03:14:29;9.40;99.90
44833;DHT22;30569;51.252;9.830;2024-03-23T03:16:54;9.40;99.90
44833;DHT22;30569;51.252;9.830;2024-03-23T03:19:20;9.40;99.90
44833;DHT22;30569;51.252;9.830;2024-03-23T03:21:46;9.40;99.90
44833;DHT22;30569;51.252;9.830;2024-03-23T03:24:13;9.50;99.90
44833;DHT22;30569;51.252;9.830;2024-03-23T03:26:38;9.50;99.90
44833;DHT22;30569;51.252;9.830;2024-03-23T03:29:04;9.50;99.90
44833;DHT22;30569;51.252;9.830;2024-03-23T03:31:29;9.60;99.90
44833;DHT22;30569;51.252;9.830;2024-03-23T03:33:55;9.40;99.90
44833;DHT22;30569;51.252;9.830;2024-03-23T03:36:21;9.40;99.90
44833;DHT22;30569;51.252;9.830;2024-03-23T03:38:46;9.30;99.90
44833;DHT22;30569;51.252;9.830;2024-03-23T03:41:12;9.20;99.90
44833;DHT22;30569;51.252;9.830;2024-03-23T03:43:37;9.00;99.90
44833;DHT22;30569;51.252;9.830;2024-03-23T03:46:04;8.90;99.90
44833;DHT22;30569;51.252;9.830;2024-03-23T03:48:29;9.00;99.90
44833;DHT22;30569;51.252;9.830;2024-03-23T03:50:55;9.00;99.90
44833;DHT22;30569;51.252;9.830;2024-03-23T03:53:21;9.00;99.90
44833;DHT22;30569;51.252;9.830;2024-03-23T03:55:46;8.90;99.90
44833;DHT22;30569;51.252;9.830;2024-03-23T03:58:12;9.00;99.90
44833;DHT22;30569;51.252;9.830;2024-03-23T04:00:37;8.90;99.90
44833;DHT22;30569;51.252;9.830;2024-03-23T04:03:03;8.90;99.90
44833;DHT22;30569;51.252;9.830;2024-03-23T04:05:29;8.90;99.90
44833;DHT22;30569;51.252;9.830;2024-03-23T04:07:54;8.80;99.90
44833;DHT22;30569;51.252;9.830;2024-03-23T04:10:20;8.70;99.90
44833;DHT22;30569;51.252;9.830;2024-03-23T04:12:47;8.10;99.90
44833;DHT22;30569;51.252;9.830;2024-03-23T04:15:13;8.70;99.90
44833;DHT22;30569;51.252;9.830;2024-03-23T04:17:38;8.60;99.90
44833;DHT22;30569;51.252;9.830;2024-03-23T04:20:05;8.70;99.90
44833;DHT22;30569;51.252;9.830;2024-03-23T04:22:34;8.70;99.90
44833;DHT22;30569;51.252;9.830;2024-03-23T04:25:00;8.90;99.90
44833;DHT22;30569;51.252;9.830;2024-03-23T04:27:34;8.90;99.90
44833;DHT22;30569;51.252;9.830;2024-03-23T04:30:01;9.00;99.90
44833;DHT22;30569;51.252;9.830;2024-03-23T04:32:27;8.90;99.90
44833;DHT22;30569;51.252;9.830;2024-03-23T04:34:53;8.40;99.90
44833;DHT22;30569;51.252;9.830;2024-03-23T04:37:20;8.10;99.90
44833;DHT22;30569;51.252;9.830;2024-03-23T04:39:46;8.20;99.90
44833;DHT22;30569;51.252;9.830;2024-03-23T04:42:11;8.00;99.90
44833;DHT22;30569;51.252;9.830;2024-03-23T04:44:37;7.50;99.90
44833;DHT22;30569;51.252;9.830;2024-03-23T04:47:03;7.30;99.90
44833;DHT22;30569;51.252;9.830;2024-03-23T04:49:28;7.30;99.90
44833;DHT22;30569;51.252;9.830;2024-03-23T04:51:54;7.30;99.90
44833;DHT22;30569;51.252;9.830;2024-03-23T04:54:20;7.10;99.90
44833;DHT22;30569;51.252;9.830;2024-03-23T04:56:45;7.00;99.90
44833;DHT22;30569;51.252;9.830;2024-03-23T04:59:11;7.10;99.90
44833;DHT22;30569;51.252;9.830;2024-03-23T05:01:36;7.30;99.90
44833;DHT22;30569;51.252;9.830;2024-03-23T05:04:04;7.20;99.90
44833;DHT22;30569;51.252;9.830;2024-03-23T05:06:30;7.00;99.90
44833;DHT22;30569;51.252;9.830;2024-03-23T05:08:56;7.00;99.90
44833;DHT22;30569;51.252;9.830;2024-03-23T05:11:21;7.20;99.90
44833;DHT22;30569;51.252;9.830;2024-03-23T05:13:47;7.50;99.90
44833;DHT22;30569;51.252;9.830;2024-03-23T05:16:13;7.40;99.90
44833;DHT22;30569;51.252;9.830;2024-03-23T05:18:38;7.30;99.90
44833;DHT22;30569;51.252;9.830;2024-03-23T05:21:04;7.40;99.90
44833;DHT22;30569;51.252;9.830;2024-03-23T05:23:30;7.40;99.90
44833;DHT22;30569;51.252;9.830;2024-03-23T05:25:55;7.40;99.90
44833;DHT22;30569;51.252;9.830;2024-03-23T05:28:22;7.50;99.90
44833;DHT22;30569;51.252;9.830;2024-03-23T05:30:54;7.50;99.90
44833;DHT22;30569;51.252;9.830;2024-03-23T05:33:20;7.40;99.90
44833;DHT22;30569;51.252;9.830;2024-03-23T05:35:46;7.30;99.90
44833;DHT22;30569;51.252;9.830;2024-03-23T05:38:13;7.10;99.90
44833;DHT22;30569;51.252;9.830;2024-03-23T05:40:39;7.00;99.90
44833;DHT22;30569;51.252;9.830;2024-03-23T05:43:06;6.90;99.90
44833;DHT22;30569;51.252;9.830;2024-03-23T05:45:32;7.10;99.90
44833;DHT22;30569;51.252;9.830;2024-03-23T05:47:57;7.10;99.90
44833;DHT22;30569;51.252;9.830;2024-03-23T05:50:23;7.00;99.90
44833;DHT22;30569;51.252;9.830;2024-03-23T05:52:50;7.10;99.90
44833;DHT22;30569;51.252;9.830;2024-03-23T05:55:16;7.00;99.90
44833;DHT22;30569;51.252;9.830;2024-03-23T05:57:41;7.10;99.90
44833;DHT22;30569;51.252;9.830;2024-03-23T06:00:07;7.30;99.90
44833;DHT22;30569;51.252;9.830;2024-03-23T06:02:44;7.10;99.90
44833;DHT22;30569;51.252;9.830;2024-03-23T06:05:11;7.20;99.90
44833;DHT22;30569;51.252;9.830;2024-03-23T06:07:37;7.40;99.90
44833;DHT22;30569;51.252;9.830;2024-03-23T06:10:03;7.30;99.90
44833;DHT22;30569;51.252;9.830;2024-03-23T06:12:28;7.20;99.90
44833;DHT22;30569;51.252;9.830;2024-03-23T06:14:54;7.20;99.90
44833;DHT22;30569;51.252;9.830;2024-03-23T06:17:20;7.20;99.90
44833;DHT22;30569;51.252;9.830;2024-03-23T06:19:45;7.20;99.90
44833;DHT22;30569;51.252;9.830;2024-03-23T06:22:11;6.70;99.90
44833;DHT22;30569;51.252;9.830;2024-03-23T06:24:36;6.50;99.90
44833;DHT22;30569;51.252;9.830;2024-03-23T06:27:02;6.40;99.90
44833;DHT22;30569;51.252;9.830;2024-03-23T06:29:27;6.50;99.90
44833;DHT22;30569;51.252;9.830;2024-03-23T06:31:54;6.20;99.90
44833;DHT22;30569;51.252;9.830;2024-03-23T06:34:20;6.00;99.90
44833;DHT22;30569;51.252;9.830;2024-03-23T06:36:47;6.30;99.90
44833;DHT22;30569;51.252;9.830;2024-03-23T06:39:12;6.10;99.90
44833;DHT22;30569;51.252;9.830;2024-03-23T06:41:51;5.80;99.90
44833;DHT22;30569;51.252;9.830;2024-03-23T06:44:18;5.90;99.90
44833;DHT22;30569;51.252;9.830;2024-03-23T06:46:43;5.90;99.90
44833;DHT22;30569;51.252;9.830;2024-03-23T06:49:09;5.50;99.90
44833;DHT22;30569;51.252;9.830;2024-03-23T06:51:35;5.60;99.90
44833;DHT22;30569;51.252;9.830;2024-03-23T06:54:02;5.70;99.90
44833;DHT22;30569;51.252;9.830;2024-03-23T06:56:29;5.80;99.90
44833;DHT22;30569;51.252;9.830;2024-03-23T06:58:54;6.00;99.90
44833;DHT22;30569;51.252;9.830;2024-03-23T07:03:46;5.70;99.90
44833;DHT22;30569;51.252;9.830;2024-03-23T07:06:12;5.60;99.90
44833;DHT22;30569;51.252;9.830;2024-03-23T07:08:37;5.90;99.90
44833;DHT22;30569;51.252;9.830;2024-03-23T07:11:03;5.90;99.90
44833;DHT22;30569;51.252;9.830;2024-03-23T07:13:30;6.20;99.90
44833;DHT22;30569;51.252;9.830;2024-03-23T07:15:56;6.10;99.90
44833;DHT22;30569;51.252;9.830;2024-03-23T07:18:22;6.10;99.90
44833;DHT22;30569;51.252;9.830;2024-03-23T07:20:57;6.10;99.90
44833;DHT22;30569;51.252;9.830;2024-03-23T07:23:24;6.10;99.90
44833;DHT22;30569;51.252;9.830;2024-03-23T07:26:03;5.80;99.90
44833;DHT22;30569;51.252;9.830;2024-03-23T07:28:33;5.10;99.90
44833;DHT22;30569;51.252;9.830;2024-03-23T07:31:04;5.40;99.90
44833;DHT22;30569;51.252;9.830;2024-03-23T07:33:30;5.80;99.90
44833;DHT22;30569;51.252;9.830;2024-03-23T07:35:56;5.70;99.90
44833;DHT22;30569;51.252;9.830;2024-03-23T07:38:22;5.90;99.90
44833;DHT22;30569;51.252;9.830;2024-03-23T07:40:47;5.70;99.90
44833;DHT22;30569;51.252;9.830;2024-03-23T07:43:15;5.90;99.90
44833;DHT22;30569;51.252;9.830;2024-03-23T07:45:41;5.60;99.90
44833;DHT22;30569;51.252;9.830;2024-03-23T07:48:06;6.00;99.90
44833;DHT22;30569;51.252;9.830;2024-03-23T07:50:32;5.80;99.90
44833;DHT22;30569;51.252;9.830;2024-03-23T07:52:58;5.70;99.90
44833;DHT22;30569;51.252;9.830;2024-03-23T07:55:23;5.60;99.90
44833;DHT22;30569;51.252;9.830;2024-03-23T07:57:51;5.50;99.90
44833;DHT22;30569;51.252;9.830;2024-03-23T08:00:17;6.20;99.90
44833;DHT22;30569;51.252;9.830;2024-03-23T08:02:42;6.20;99.90
44833;DHT22;30569;51.252;9.830;2024-03-23T08:05:08;6.40;99.90
44833;DHT22;30569;51.252;9.830;2024-03-23T08:07:33;6.70;99.90
44833;DHT22;30569;51.252;9.830;2024-03-23T08:09:59;6.60;99.90
44833;DHT22;30569;51.252;9.830;2024-03-23T08:12:25;6.80;99.90
44833;DHT22;30569;51.252;9.830;2024-03-23T08:14:51;6.80;99.90
44833;DHT22;30569;51.252;9.830;2024-03-23T08:17:16;6.70;99.90
44833;DHT22;30569;51.252;9.830;2024-03-23T08:19:42;6.80;99.90
44833;DHT22;30569;51.252;9.830;2024-03-23T08:22:07;6.90;99.90
44833;DHT22;30569;51.252;9.830;2024-03-23T08:24:34;6.90;99.90
44833;DHT22;30569;51.252;9.830;2024-03-23T08:27:00;6.50;99.90
44833;DHT22;30569;51.252;9.830;2024-03-23T08:29:26;6.80;99.90
44833;DHT22;30569;51.252;9.830;2024-03-23T08:31:51;7.00;99.90
44833;DHT22;30569;51.252;9.830;2024-03-23T08:34:17;7.20;99.90
44833;DHT22;30569;51.252;9.830;2024-03-23T08:36:43;6.90;99.90
44833;DHT22;30569;51.252;9.830;2024-03-23T08:39:09;6.40;99.90
44833;DHT22;30569;51.252;9.830;2024-03-23T08:41:34;5.90;99.90
44833;DHT22;30569;51.252;9.830;2024-03-23T08:44:00;6.00;99.90
44833;DHT22;30569;51.252;9.830;2024-03-23T08:46:25;5.70;99.90
44833;DHT22;30569;51.252;9.830;2024-03-23T08:48:51;6.20;99.90
44833;DHT22;30569;51.252;9.830;2024-03-23T08:51:18;6.30;99.90
44833;DHT22;30569;51.252;9.830;2024-03-23T08:56:10;6.20;99.90
44833;DHT22;30569;51.252;9.830;2024-03-23T08:58:37;6.50;99.90
44833;DHT22;30569;51.252;9.830;2024-03-23T09:03:33;6.70;99.90
44833;DHT22;30569;51.252;9.830;2024-03-23T09:05:59;6.90;99.90
44833;DHT22;30569;51.252;9.830;2024-03-23T09:08:25;6.80;99.90
44833;DHT22;30569;51.252;9.830;2024-03-23T09:10:52;7.30;99.90
44833;DHT22;30569;51.252;9.830;2024-03-23T09:13:17;7.60;99.90
44833;DHT22;30569;51.252;9.830;2024-03-23T09:15:48;7.40;99.90
44833;DHT22;30569;51.252;9.830;2024-03-23T09:18:14;6.90;99.90
44833;DHT22;30569;51.252;9.830;2024-03-23T09:20:39;6.70;99.90
44833;DHT22;30569;51.252;9.830;2024-03-23T09:23:05;6.70;99.90
44833;DHT22;30569;51.252;9.830;2024-03-23T09:25:31;6.30;99.90
44833;DHT22;30569;51.252;9.830;2024-03-23T09:27:57;6.50;99.90
44833;DHT22;30569;51.252;9.830;2024-03-23T09:32:49;6.40;99.90
44833;DHT22;30569;51.252;9.830;2024-03-23T09:35:15;6.80;99.90
44833;DHT22;30569;51.252;9.830;2024-03-23T09:37:41;6.70;99.90
44833;DHT22;30569;51.252;9.830;2024-03-23T09:40:10;7.50;99.90
44833;DHT22;30569;51.252;9.830;2024-03-23T09:42:36;7.50;99.90
44833;DHT22;30569;51.252;9.830;2024-03-23T09:45:02;7.90;99.90
44833;DHT22;30569;51.252;9.830;2024-03-23T09:47:31;8.20;99.90
44833;DHT22;30569;51.252;9.830;2024-03-23T09:49:57;8.20;99.90
44833;DHT22;30569;51.252;9.830;2024-03-23T09:52:23;7.70;99.90
44833;DHT22;30569;51.252;9.830;2024-03-23T09:54:49;7.10;99.90
44833;DHT22;30569;51.252;9.830;2024-03-23T09:57:14;7.00;99.90
44833;DHT22;30569;51.252;9.830;2024-03-23T09:59:40;6.90;99.90
44833;DHT22;30569;51.252;9.830;2024-03-23T10:02:06;7.10;99.90
44833;DHT22;30569;51.252;9.830;2024-03-23T10:04:38;7.20;99.90
44833;DHT22;30569;51.252;9.830;2024-03-23T10:07:14;7.60;99.90
44833;DHT22;30569;51.252;9.830;2024-03-23T10:12:10;7.70;99.90
44833;DHT22;30569;51.252;9.830;2024-03-23T10:14:36;9.10;99.90
44833;DHT22;30569;51.252;9.830;2024-03-23T10:17:21;9.40;99.90
44833;DHT22;30569;51.252;9.830;2024-03-23T10:19:52;10.40;99.90
44833;DHT22;30569;51.252;9.830;2024-03-23T10:22:22;10.70;99.90
44833;DHT22;30569;51.252;9.830;2024-03-23T10:24:49;9.80;99.90
44833;DHT22;30569;51.252;9.830;2024-03-23T10:27:19;9.90;99.90
44833;DHT22;30569;51.252;9.830;2024-03-23T10:29:45;8.80;99.90
44833;DHT22;30569;51.252;9.830;2024-03-23T10:32:12;7.70;99.90
44833;DHT22;30569;51.252;9.830;2024-03-23T10:34:38;7.60;99.90
44833;DHT22;30569;51.252;9.830;2024-03-23T10:37:05;8.00;99.90
44833;DHT22;30569;51.252;9.830;2024-03-23T10:39:36;8.30;99.90
44833;DHT22;30569;51.252;9.830;2024-03-23T10:42:03;8.10;99.90
44833;DHT22;30569;51.252;9.830;2024-03-23T10:44:29;8.20;99.90
44833;DHT22;30569;51.252;9.830;2024-03-23T10:46:59;8.20;99.90
44833;DHT22;30569;51.252;9.830;2024-03-23T10:49:27;8.60;99.90
44833;DHT22;30569;51.252;9.830;2024-03-23T10:51:56;8.50;99.90
44833;DHT22;30569;51.252;9.830;2024-03-23T10:54:22;9.00;99.90
44833;DHT22;30569;51.252;9.830;2024-03-23T10:57:04;9.10;99.90
44833;DHT22;30569;51.252;9.830;2024-03-23T10:59:31;9.90;99.90
44833;DHT22;30569;51.252;9.830;2024-03-23T11:01:59;9.80;99.90
44833;DHT22;30569;51.252;9.830;2024-03-23T11:06:57;9.10;99.90
44833;DHT22;30569;51.252;9.830;2024-03-23T11:14:52;10.20;99.90
44833;DHT22;30569;51.252;9.830;2024-03-23T11:17:19;10.50;99.90
44833;DHT22;30569;51.252;9.830;2024-03-23T11:25:21;9.50;99.80
44833;DHT22;30569;51.252;9.830;2024-03-23T11:27:47;9.50;99.90
44833;DHT22;30569;51.252;9.830;2024-03-23T11:32:42;10.40;99.40
44833;DHT22;30569;51.252;9.830;2024-03-23T11:35:08;10.20;98.40
44833;DHT22;30569;51.252;9.830;2024-03-23T11:37:36;10.20;99.20
44833;DHT22;30569;51.252;9.830;2024-03-23T11:40:17;8.50;99.30
44833;DHT22;30569;51.252;9.830;2024-03-23T11:45:09;8.90;99.90
44833;DHT22;30569;51.252;9.830;2024-03-23T11:47:35;8.80;99.90
44833;DHT22;30569;51.252;9.830;2024-03-23T11:50:00;9.00;99.90
44833;DHT22;30569;51.252;9.830;2024-03-23T11:52:26;7.40;99.90
44833;DHT22;30569;51.252;9.830;2024-03-23T11:54:51;6.90;99.90
44833;DHT22;30569;51.252;9.830;2024-03-23T11:57:28;7.20;99.90
44833;DHT22;30569;51.252;9.830;2024-03-23T11:59:54;7.30;99.90
44833;DHT22;30569;51.252;9.830;2024-03-23T12:02:20;8.10;99.90
44833;DHT22;30569;51.252;9.830;2024-03-23T12:04:45;8.60;99.90
44833;DHT22;30569;51.252;9.830;2024-03-23T12:07:16;8.70;99.90
44833;DHT22;30569;51.252;9.830;2024-03-23T12:09:44;9.10;99.90
44833;DHT22;30569;51.252;9.830;2024-03-23T12:12:16;8.50;98.50
44833;DHT22;30569;51.252;9.830;2024-03-23T12:15:05;8.40;99.90
44833;DHT22;30569;51.252;9.830;2024-03-23T12:17:32;8.60;99.90
44833;DHT22;30569;51.252;9.830;2024-03-23T12:19:57;8.70;99.90
44833;DHT22;30569;51.252;9.830;2024-03-23T12:22:24;8.60;99.90
44833;DHT22;30569;51.252;9.830;2024-03-23T12:24:50;8.80;99.90
44833;DHT22;30569;51.252;9.830;2024-03-23T12:27:16;8.80;99.90
44833;DHT22;30569;51.252;9.830;2024-03-23T12:29:42;8.80;99.90
44833;DHT22;30569;51.252;9.830;2024-03-23T12:32:13;8.60;99.90
44833;DHT22;30569;51.252;9.830;2024-03-23T12:34:39;8.60;99.90
44833;DHT22;30569;51.252;9.830;2024-03-23T12:37:04;7.80;99.90
44833;DHT22;30569;51.252;9.830;2024-03-23T12:39:31;7.80;99.90
44833;DHT22;30569;51.252;9.830;2024-03-23T12:41:57;8.10;99.90
44833;DHT22;30569;51.252;9.830;2024-03-23T12:44:23;8.20;99.90
44833;DHT22;30569;51.252;9.830;2024-03-23T12:46:48;8.30;99.90
44833;DHT22;30569;51.252;9.830;2024-03-23T12:49:14;7.80;99.90
44833;DHT22;30569;51.252;9.830;2024-03-23T12:51:49;8.00;99.90
44833;DHT22;30569;51.252;9.830;2024-03-23T12:54:18;8.50;99.90
44833;DHT22;30569;51.252;9.830;2024-03-23T12:56:43;8.60;99.90
44833;DHT22;30569;51.252;9.830;2024-03-23T12:59:09;9.00;99.90
44833;DHT22;30569;51.252;9.830;2024-03-23T13:01:35;9.00;99.90
44833;DHT22;30569;51.252;9.830;2024-03-23T13:04:00;9.30;99.90
44833;DHT22;30569;51.252;9.830;2024-03-23T13:06:27;9.20;99.90
44833;DHT22;30569;51.252;9.830;2024-03-23T13:08:57;9.40;99.90
44833;DHT22;30569;51.252;9.830;2024-03-23T13:11:23;9.10;99.90
44833;DHT22;30569;51.252;9.830;2024-03-23T13:13:49;9.50;99.90
44833;DHT22;30569;51.252;9.830;2024-03-23T13:16:14;9.60;99.30
44833;DHT22;30569;51.252;9.830;2024-03-23T13:18:40;9.70;99.70
44833;DHT22;30569;51.252;9.830;2024-03-23T13:21:05;9.70;99.90
44833;DHT22;30569;51.252;9.830;2024-03-23T13:23:31;10.10;99.90
44833;DHT22;30569;51.252;9.830;2024-03-23T13:25:58;10.50;98.70
44833;DHT22;30569;51.252;9.830;2024-03-23T13:28:23;10.70;97.50
44833;DHT22;30569;51.252;9.830;2024-03-23T13:30:56;10.50;97.00
44833;DHT22;30569;51.252;9.830;2024-03-23T13:33:23;9.60;95.60
44833;DHT22;30569;51.252;9.830;2024-03-23T13:35:52;9.20;96.70
44833;DHT22;30569;51.252;9.830;2024-03-23T13:38:18;9.30;99.30
44833;DHT22;30569;51.252;9.830;2024-03-23T13:41:00;9.40;98.70
44833;DHT22;30569;51.252;9.830;2024-03-23T13:43:27;9.00;97.20
44833;DHT22;30569;51.252;9.830;2024-03-23T13:45:55;9.00;97.80
44833;DHT22;30569;51.252;9.830;2024-03-23T13:48:22;8.70;97.20
44833;DHT22;30569;51.252;9.830;2024-03-23T13:50:56;8.70;97.60
44833;DHT22;30569;51.252;9.830;2024-03-23T13:53:21;8.70;98.00
44833;DHT22;30569;51.252;9.830;2024-03-23T13:55:49;9.10;98.60
44833;DHT22;30569;51.252;9.830;2024-03-23T13:58:15;9.20;98.90
44833;DHT22;30569;51.252;9.830;2024-03-23T14:00:41;8.40;99.80
44833;DHT22;30569;51.252;9.830;2024-03-23T14:03:13;8.10;99.90
44833;DHT22;30569;51.252;9.830;2024-03-23T14:05:39;7.80;99.90
44833;DHT22;30569;51.252;9.830;2024-03-23T14:08:09;7.30;99.90
44833;DHT22;30569;51.252;9.830;2024-03-23T14:10:35;6.00;99.90
44833;DHT22;30569;51.252;9.830;2024-03-23T14:13:04;6.10;99.90
44833;DHT22;30569;51.252;9.830;2024-03-23T14:15:30;5.60;99.90
44833;DHT22;30569;51.252;9.830;2024-03-23T14:17:56;5.70;99.90
44833;DHT22;30569;51.252;9.830;2024-03-23T14:20:22;5.80;99.90
44833;DHT22;30569;51.252;9.830;2024-03-23T14:22:49;6.00;99.90
44833;DHT22;30569;51.252;9.830;2024-03-23T14:25:15;5.80;99.90
44833;DHT22;30569;51.252;9.830;2024-03-23T14:27:40;5.90;99.90
44833;DHT22;30569;51.252;9.830;2024-03-23T14:30:06;6.60;99.90
44833;DHT22;30569;51.252;9.830;2024-03-23T14:32:32;7.40;99.90
44833;DHT22;30569;51.252;9.830;2024-03-23T14:35:03;7.90;99.90
44833;DHT22;30569;51.252;9.830;2024-03-23T14:37:30;7.60;99.90
44833;DHT22;30569;51.252;9.830;2024-03-23T14:39:56;7.20;99.90
44833;DHT22;30569;51.252;9.830;2024-03-23T14:42:22;8.50;99.90
44833;DHT22;30569;51.252;9.830;2024-03-23T14:44:49;8.10;99.90
44833;DHT22;30569;51.252;9.830;2024-03-23T14:47:15;8.30;99.90
44833;DHT22;30569;51.252;9.830;2024-03-23T14:49:41;8.30;99.90
44833;DHT22;30569;51.252;9.830;2024-03-23T14:52:06;8.00;99.90
44833;DHT22;30569;51.252;9.830;2024-03-23T14:54:34;8.40;99.90
44833;DHT22;30569;51.252;9.830;2024-03-23T14:57:00;8.60;99.90
44833;DHT22;30569;51.252;9.830;2024-03-23T14:59:26;8.40;99.90
44833;DHT22;30569;51.252;9.830;2024-03-23T15:01:51;8.50;99.90
44833;DHT22;30569;51.252;9.830;2024-03-23T15:04:17;7.90;99.90
44833;DHT22;30569;51.252;9.830;2024-03-23T15:09:11;7.50;99.90
44833;DHT22;30569;51.252;9.830;2024-03-23T15:11:37;7.70;99.90
44833;DHT22;30569;51.252;9.830;2024-03-23T15:14:03;7.80;99.90
44833;DHT22;30569;51.252;9.830;2024-03-23T15:16:28;7.30;99.90
44833;DHT22;30569;51.252;9.830;2024-03-23T15:18:54;7.20;99.90
44833;DHT22;30569;51.252;9.830;2024-03-23T15:21:19;6.90;99.90
44833;DHT22;30569;51.252;9.830;2024-03-23T15:23:46;7.70;99.90
44833;DHT22;30569;51.252;9.830;2024-03-23T15:26:12;7.70;99.90
44833;DHT22;30569;51.252;9.830;2024-03-23T15:28:37;7.10;99.90
44833;DHT22;30569;51.252;9.830;2024-03-23T15:31:09;6.70;99.90
44833;DHT22;30569;51.252;9.830;2024-03-23T15:33:34;6.80;99.90
44833;DHT22;30569;51.252;9.830;2024-03-23T15:36:01;7.00;99.90
44833;DHT22;30569;51.252;9.830;2024-03-23T15:38:27;7.10;99.90
44833;DHT22;30569;51.252;9.830;2024-03-23T15:40:54;7.50;99.90
44833;DHT22;30569;51.252;9.830;2024-03-23T15:43:20;8.10;99.90
44833;DHT22;30569;51.252;9.830;2024-03-23T15:45:55;8.20;99.90
44833;DHT22;30569;51.252;9.830;2024-03-23T15:48:21;7.70;99.90
44833;DHT22;30569;51.252;9.830;2024-03-23T15:50:53;7.40;99.90
44833;DHT22;30569;51.252;9.830;2024-03-23T15:53:24;7.50;99.90
44833;DHT22;30569;51.252;9.830;2024-03-23T15:56:02;7.30;99.90
44833;DHT22;30569;51.252;9.830;2024-03-23T15:58:30;7.60;99.90
44833;DHT22;30569;51.252;9.830;2024-03-23T16:01:00;7.80;99.90
44833;DHT22;30569;51.252;9.830;2024-03-23T16:03:27;8.30;99.70
44833;DHT22;30569;51.252;9.830;2024-03-23T16:05:53;8.50;97.20
44833;DHT22;30569;51.252;9.830;2024-03-23T16:08:19;8.50;96.20
44833;DHT22;30569;51.252;9.830;2024-03-23T16:10:44;8.40;95.40
44833;DHT22;30569;51.252;9.830;2024-03-23T16:13:10;8.70;95.80
44833;DHT22;30569;51.252;9.830;2024-03-23T16:15:36;8.60;94.60
44833;DHT22;30569;51.252;9.830;2024-03-23T16:18:02;8.20;94.80
44833;DHT22;30569;51.252;9.830;2024-03-23T16:20:27;8.10;95.10
44833;DHT22;30569;51.252;9.830;2024-03-23T16:22:53;8.20;94.60
44833;DHT22;30569;51.252;9.830;2024-03-23T16:25:19;8.50;94.90
44833;DHT22;30569;51.252;9.830;2024-03-23T16:27:44;8.40;95.50
44833;DHT22;30569;51.252;9.830;2024-03-23T16:30:11;8.70;93.80
44833;DHT22;30569;51.252;9.830;2024-03-23T16:32:36;7.80;94.20
44833;DHT22;30569;51.252;9.830;2024-03-23T16:35:04;8.00;94.30
44833;DHT22;30569;51.252;9.830;2024-03-23T16:37:30;7.80;93.80
44833;DHT22;30569;51.252;9.830;2024-03-23T16:39:56;8.00;95.00
44833;DHT22;30569;51.252;9.830;2024-03-23T16:42:21;7.90;94.30
44833;DHT22;30569;51.252;9.830;2024-03-23T16:47:13;7.80;93.80
44833;DHT22;30569;51.252;9.830;2024-03-23T16:49:39;8.10;93.70
44833;DHT22;30569;51.252;9.830;2024-03-23T16:52:05;7.60;93.90
44833;DHT22;30569;51.252;9.830;2024-03-23T16:54:31;7.70;93.80
44833;DHT22;30569;51.252;9.830;2024-03-23T16:56:56;7.70;93.80
44833;DHT22;30569;51.252;9.830;2024-03-23T16:59:22;8.50;94.00
44833;DHT22;30569;51.252;9.830;2024-03-23T17:01:48;7.60;93.90
44833;DHT22;30569;51.252;9.830;2024-03-23T17:04:13;7.10;94.30
44833;DHT22;30569;51.252;9.830;2024-03-23T17:06:39;7.20;94.30
44833;DHT22;30569;51.252;9.830;2024-03-23T17:09:05;7.50;94.70